ENQR

Snorre B Oilp

Snorre B Oilp, Norway
METAR ENQR 151220Z AUTO 22019KT 9999NDV FEW044/// BKN120/// 15/12 Q1004 W///S3
Observed Flight Rules
Aug-15 @ 12:20 UTC (21 minutes ago)
Wind Clouds
220° at 19 knots
  • Few at 4,400' AGL
  • Broken at 12,000' AGL
Temperatures Readings
Current 15°C / 59°F
Dewpoint 12°C / 54°F
Humidity 82%
Altimeter 29.65" Hg
Pressure 1004 hPa
Elevation 10
METAR ENQR 151220Z AUTO 22019KT 9999NDV FEW044/// BKN120/// 15/12 Q1004 W///S3
Observed Flight Rules
Aug-15 @ 12:20 UTC
(21 minutes ago)
Wind
220° at 19 knots
Clouds
  • Few at 4,400' AGL
  • Broken at 12,000' AGL
Temperature Dewpoint
15°C / 59°F 12°C / 54°F
Humidity Altimeter Pressure
82% 29.65" Hg 1004 hPa